sensor_id;sensor_type;location;lat;lon;timestamp;pressure;altitude;pressure_sealevel;temperature;humidity
55656;BME280;41530;52.382;5.270;2023-06-10T00:01:23;101768.94;;;24.57;38.34
55656;BME280;41530;52.382;5.270;2023-06-10T00:03:51;101765.94;;;24.51;38.14
55656;BME280;41530;52.382;5.270;2023-06-10T00:06:18;101768.16;;;24.48;37.51
55656;BME280;41530;52.382;5.270;2023-06-10T00:08:45;101765.13;;;24.43;37.76
55656;BME280;41530;52.382;5.270;2023-06-10T00:11:13;101762.78;;;24.40;38.27
55656;BME280;41530;52.382;5.270;2023-06-10T00:13:40;101765.66;;;24.38;38.47
55656;BME280;41530;52.382;5.270;2023-06-10T00:16:07;101775.94;;;24.35;38.53
55656;BME280;41530;52.382;5.270;2023-06-10T00:18:34;101776.13;;;24.33;38.39
55656;BME280;41530;52.382;5.270;2023-06-10T00:21:03;101772.59;;;24.33;38.62
55656;BME280;41530;52.382;5.270;2023-06-10T00:23:31;101772.59;;;24.33;38.96
55656;BME280;41530;52.382;5.270;2023-06-10T00:25:58;101768.38;;;24.30;38.54
55656;BME280;41530;52.382;5.270;2023-06-10T00:28:25;101768.56;;;24.29;38.92
55656;BME280;41530;52.382;5.270;2023-06-10T00:30:52;101770.41;;;24.28;38.30
55656;BME280;41530;52.382;5.270;2023-06-10T00:33:19;101770.56;;;24.27;38.92
55656;BME280;41530;52.382;5.270;2023-06-10T00:35:45;101769.25;;;24.23;38.54
55656;BME280;41530;52.382;5.270;2023-06-10T00:38:13;101777.47;;;24.21;38.38
55656;BME280;41530;52.382;5.270;2023-06-10T00:40:41;101781.34;;;24.19;38.08
55656;BME280;41530;52.382;5.270;2023-06-10T00:43:08;101777.63;;;24.20;39.10
55656;BME280;41530;52.382;5.270;2023-06-10T00:45:35;101779.66;;;24.17;38.81
55656;BME280;41530;52.382;5.270;2023-06-10T00:48:03;101776.31;;;24.15;38.34
55656;BME280;41530;52.382;5.270;2023-06-10T00:50:30;101785.22;;;24.16;38.93
55656;BME280;41530;52.382;5.270;2023-06-10T00:52:58;101785.38;;;24.14;39.02
55656;BME280;41530;52.382;5.270;2023-06-10T00:55:26;101778.81;;;24.17;39.09
55656;BME280;41530;52.382;5.270;2023-06-10T00:57:53;101781.69;;;24.15;39.08
55656;BME280;41530;52.382;5.270;2023-06-10T01:00:20;101773.94;;;24.12;39.14
55656;BME280;41530;52.382;5.270;2023-06-10T01:02:47;101781.19;;;24.12;38.88
55656;BME280;41530;52.382;5.270;2023-06-10T01:05:15;101783.69;;;24.13;39.05
55656;BME280;41530;52.382;5.270;2023-06-10T01:10:36;101788.06;;;24.14;39.12
55656;BME280;41530;52.382;5.270;2023-06-10T01:13:09;101784.03;;;24.10;38.88
55656;BME280;41530;52.382;5.270;2023-06-10T01:15:38;101781.88;;;24.06;38.83
55656;BME280;41530;52.382;5.270;2023-06-10T01:18:09;101777.53;;;23.97;38.44
55656;BME280;41530;52.382;5.270;2023-06-10T01:20:37;101791.00;;;23.97;39.07
55656;BME280;41530;52.382;5.270;2023-06-10T01:23:07;101783.59;;;23.91;38.54
55656;BME280;41530;52.382;5.270;2023-06-10T01:25:40;101783.75;;;23.89;38.79
55656;BME280;41530;52.382;5.270;2023-06-10T01:28:40;101789.81;;;23.91;38.99
55656;BME280;41530;52.382;5.270;2023-06-10T01:31:17;101784.78;;;23.88;39.00
55656;BME280;41530;52.382;5.270;2023-06-10T01:33:51;101787.47;;;23.88;39.10
55656;BME280;41530;52.382;5.270;2023-06-10T01:36:21;101781.25;;;23.88;39.37
55656;BME280;41530;52.382;5.270;2023-06-10T01:38:50;101787.78;;;23.85;39.27
55656;BME280;41530;52.382;5.270;2023-06-10T01:41:18;101775.72;;;23.81;39.21
55656;BME280;41530;52.382;5.270;2023-06-10T01:43:45;101791.16;;;23.87;39.07
55656;BME280;41530;52.382;5.270;2023-06-10T01:46:12;101789.84;;;23.83;39.15
55656;BME280;41530;52.382;5.270;2023-06-10T01:48:41;101790.34;;;23.78;39.18
55656;BME280;41530;52.382;5.270;2023-06-10T01:51:08;101789.00;;;23.74;39.47
55656;BME280;41530;52.382;5.270;2023-06-10T01:53:35;101792.34;;;23.76;39.34
55656;BME280;41530;52.382;5.270;2023-06-10T01:56:01;101796.22;;;23.74;39.35
55656;BME280;41530;52.382;5.270;2023-06-10T01:58:28;101794.91;;;23.70;39.50
55656;BME280;41530;52.382;5.270;2023-06-10T02:00:55;101789.16;;;23.73;39.61
55656;BME280;41530;52.382;5.270;2023-06-10T02:03:22;101790.31;;;23.70;39.11
55656;BME280;41530;52.382;5.270;2023-06-10T02:05:49;101797.22;;;23.73;39.20
55656;BME280;41530;52.382;5.270;2023-06-10T02:08:16;101798.91;;;23.66;39.35
55656;BME280;41530;52.382;5.270;2023-06-10T02:10:43;101796.06;;;23.67;39.70
55656;BME280;41530;52.382;5.270;2023-06-10T02:13:09;101798.75;;;23.67;39.40
55656;BME280;41530;52.382;5.270;2023-06-10T02:15:36;101800.94;;;23.64;39.65
55656;BME280;41530;52.382;5.270;2023-06-10T02:18:03;101800.25;;;23.62;39.96
55656;BME280;41530;52.382;5.270;2023-06-10T02:20:29;101802.44;;;23.58;39.51
55656;BME280;41530;52.382;5.270;2023-06-10T02:22:57;101796.41;;;23.64;39.86
55656;BME280;41530;52.382;5.270;2023-06-10T02:25:23;101786.50;;;23.57;39.37
55656;BME280;41530;52.382;5.270;2023-06-10T02:27:50;101802.59;;;23.65;39.48
55656;BME280;41530;52.382;5.270;2023-06-10T02:30:17;101803.44;;;23.65;39.77
55656;BME280;41530;52.382;5.270;2023-06-10T02:32:43;101802.44;;;23.66;39.94
55656;BME280;41530;52.382;5.270;2023-06-10T02:35:14;101804.47;;;23.64;39.76
55656;BME280;41530;52.382;5.270;2023-06-10T02:37:42;101807.47;;;23.61;39.32
55656;BME280;41530;52.382;5.270;2023-06-10T02:40:09;101794.06;;;23.53;39.44
55656;BME280;41530;52.382;5.270;2023-06-10T02:42:36;101799.25;;;23.55;39.73
55656;BME280;41530;52.382;5.270;2023-06-10T02:45:03;101799.09;;;23.56;40.01
55656;BME280;41530;52.382;5.270;2023-06-10T02:47:30;101802.78;;;23.55;39.74
55656;BME280;41530;52.382;5.270;2023-06-10T02:49:57;101802.97;;;23.54;39.70
55656;BME280;41530;52.382;5.270;2023-06-10T02:52:23;101806.66;;;23.53;39.88
55656;BME280;41530;52.382;5.270;2023-06-10T02:54:51;101808.81;;;23.57;40.02
55656;BME280;41530;52.382;5.270;2023-06-10T02:57:18;101799.09;;;23.56;39.92
55656;BME280;41530;52.382;5.270;2023-06-10T02:59:44;101795.75;;;23.54;39.93
55656;BME280;41530;52.382;5.270;2023-06-10T03:02:11;101794.56;;;23.57;39.99
55656;BME280;41530;52.382;5.270;2023-06-10T03:04:38;101798.06;;;23.57;39.84
55656;BME280;41530;52.382;5.270;2023-06-10T03:07:05;101807.16;;;23.56;40.05
55656;BME280;41530;52.382;5.270;2023-06-10T03:09:34;101802.78;;;23.55;39.65
55656;BME280;41530;52.382;5.270;2023-06-10T03:12:00;101802.75;;;23.47;39.69
55656;BME280;41530;52.382;5.270;2023-06-10T03:14:27;101809.97;;;23.46;39.83
55656;BME280;41530;52.382;5.270;2023-06-10T03:16:54;101802.25;;;23.43;40.05
55656;BME280;41530;52.382;5.270;2023-06-10T03:19:21;101812.50;;;23.40;40.03
55656;BME280;41530;52.382;5.270;2023-06-10T03:21:49;101808.28;;;23.37;40.17
55656;BME280;41530;52.382;5.270;2023-06-10T03:24:16;101809.78;;;23.32;40.16
55656;BME280;41530;52.382;5.270;2023-06-10T03:26:43;101810.63;;;23.32;40.18
55656;BME280;41530;52.382;5.270;2023-06-10T03:29:10;101816.00;;;23.32;40.35
55656;BME280;41530;52.382;5.270;2023-06-10T03:31:37;101815.16;;;23.32;40.21
55656;BME280;41530;52.382;5.270;2023-06-10T03:34:05;101819.69;;;23.31;40.23
55656;BME280;41530;52.382;5.270;2023-06-10T03:36:31;101816.34;;;23.29;40.32
55656;BME280;41530;52.382;5.270;2023-06-10T03:38:58;101827.25;;;23.28;40.32
55656;BME280;41530;52.382;5.270;2023-06-10T03:41:25;101824.03;;;23.32;40.72
55656;BME280;41530;52.382;5.270;2023-06-10T03:43:52;101821.53;;;23.31;40.57
55656;BME280;41530;52.382;5.270;2023-06-10T03:46:18;101816.00;;;23.32;40.17
55656;BME280;41530;52.382;5.270;2023-06-10T03:48:45;101829.09;;;23.35;40.61
55656;BME280;41530;52.382;5.270;2023-06-10T03:51:12;101821.72;;;23.37;40.43
55656;BME280;41530;52.382;5.270;2023-06-10T03:53:38;101818.69;;;23.32;40.46
55656;BME280;41530;52.382;5.270;2023-06-10T03:56:05;101831.63;;;23.37;40.61
55656;BME280;41530;52.382;5.270;2023-06-10T03:58:32;101832.44;;;23.37;40.46
55656;BME280;41530;52.382;5.270;2023-06-10T04:00:58;101823.03;;;23.33;40.52
55656;BME280;41530;52.382;5.270;2023-06-10T04:03:25;101823.03;;;23.33;40.73
55656;BME280;41530;52.382;5.270;2023-06-10T04:05:52;101836.78;;;23.30;40.29
55656;BME280;41530;52.382;5.270;2023-06-10T04:08:19;101827.25;;;23.28;40.48
55656;BME280;41530;52.382;5.270;2023-06-10T04:10:47;101833.63;;;23.27;40.36
55656;BME280;41530;52.382;5.270;2023-06-10T04:13:13;101831.59;;;23.21;40.45
55656;BME280;41530;52.382;5.270;2023-06-10T04:15:41;101832.09;;;23.16;40.65
55656;BME280;41530;52.382;5.270;2023-06-10T04:18:07;101828.91;;;23.13;40.79
55656;BME280;41530;52.382;5.270;2023-06-10T04:20:35;101826.53;;;23.09;40.75
55656;BME280;41530;52.382;5.270;2023-06-10T04:23:01;101834.75;;;23.08;40.92
55656;BME280;41530;52.382;5.270;2023-06-10T04:25:28;101837.59;;;23.06;40.77
55656;BME280;41530;52.382;5.270;2023-06-10T04:27:55;101832.91;;;23.08;41.27
55656;BME280;41530;52.382;5.270;2023-06-10T04:30:22;101839.13;;;23.09;40.77
55656;BME280;41530;52.382;5.270;2023-06-10T04:32:48;101850.38;;;23.13;41.12
55656;BME280;41530;52.382;5.270;2023-06-10T04:35:15;101846.00;;;23.12;41.11
55656;BME280;41530;52.382;5.270;2023-06-10T04:37:42;101846.84;;;23.12;41.35
55656;BME280;41530;52.382;5.270;2023-06-10T04:40:09;101854.53;;;23.07;41.35
55656;BME280;41530;52.382;5.270;2023-06-10T04:42:36;101843.31;;;23.03;40.96
55656;BME280;41530;52.382;5.270;2023-06-10T04:45:03;101840.09;;;23.00;41.18
55656;BME280;41530;52.382;5.270;2023-06-10T04:47:30;101853.22;;;23.03;41.13
55656;BME280;41530;52.382;5.270;2023-06-10T04:50:00;101845.47;;;23.00;41.15
55656;BME280;41530;52.382;5.270;2023-06-10T04:52:27;101849.69;;;23.02;41.62
55656;BME280;41530;52.382;5.270;2023-06-10T04:54:54;101851.69;;;23.00;41.34
55656;BME280;41530;52.382;5.270;2023-06-10T04:57:21;101851.38;;;23.03;41.33
55656;BME280;41530;52.382;5.270;2023-06-10T04:59:48;101847.00;;;23.02;41.56
55656;BME280;41530;52.382;5.270;2023-06-10T05:02:15;101852.00;;;23.05;41.54
55656;BME280;41530;52.382;5.270;2023-06-10T05:04:41;101848.00;;;23.09;41.62
55656;BME280;41530;52.382;5.270;2023-06-10T05:07:08;101854.56;;;23.15;41.33
55656;BME280;41530;52.382;5.270;2023-06-10T05:09:35;101859.44;;;23.20;41.42
55656;BME280;41530;52.382;5.270;2023-06-10T05:12:02;101854.75;;;23.22;41.17
55656;BME280;41530;52.382;5.270;2023-06-10T05:14:29;101858.94;;;23.24;41.20
55656;BME280;41530;52.382;5.270;2023-06-10T05:16:56;101859.94;;;23.23;41.38
55656;BME280;41530;52.382;5.270;2023-06-10T05:19:22;101849.06;;;23.25;41.42
55656;BME280;41530;52.382;5.270;2023-06-10T05:21:49;101854.09;;;23.28;41.27
55656;BME280;41530;52.382;5.270;2023-06-10T05:24:16;101856.44;;;23.31;41.65
55656;BME280;41530;52.382;5.270;2023-06-10T05:26:43;101853.25;;;23.35;41.33
55656;BME280;41530;52.382;5.270;2023-06-10T05:29:09;101856.28;;;23.40;41.37
55656;BME280;41530;52.382;5.270;2023-06-10T05:31:36;101854.78;;;23.46;41.41
55656;BME280;41530;52.382;5.270;2023-06-10T05:34:03;101857.13;;;23.49;41.32
55656;BME280;41530;52.382;5.270;2023-06-10T05:36:30;101854.31;;;23.51;41.29
55656;BME280;41530;52.382;5.270;2023-06-10T05:38:56;101858.34;;;23.55;41.30
55656;BME280;41530;52.382;5.270;2023-06-10T05:41:23;101857.16;;;23.57;41.31
55656;BME280;41530;52.382;5.270;2023-06-10T05:43:50;101852.63;;;23.58;41.61
55656;BME280;41530;52.382;5.270;2023-06-10T05:46:16;101855.66;;;23.63;41.50
55656;BME280;41530;52.382;5.270;2023-06-10T05:48:43;101859.69;;;23.67;41.56
55656;BME280;41530;52.382;5.270;2023-06-10T05:51:10;101862.38;;;23.67;41.35
55656;BME280;41530;52.382;5.270;2023-06-10T05:53:37;101861.88;;;23.63;41.25
55656;BME280;41530;52.382;5.270;2023-06-10T05:56:04;101866.75;;;23.68;41.42
55656;BME280;41530;52.382;5.270;2023-06-10T05:58:31;101869.09;;;23.71;41.44
55656;BME280;41530;52.382;5.270;2023-06-10T06:00:58;101865.22;;;23.73;41.46
55656;BME280;41530;52.382;5.270;2023-06-10T06:03:24;101863.06;;;23.77;41.60
55656;BME280;41530;52.382;5.270;2023-06-10T06:05:51;101861.03;;;23.79;41.63
55656;BME280;41530;52.382;5.270;2023-06-10T06:08:18;101853.81;;;23.79;41.65
55656;BME280;41530;52.382;5.270;2023-06-10T06:10:45;101860.50;;;23.84;41.95
55656;BME280;41530;52.382;5.270;2023-06-10T06:13:13;101867.06;;;23.89;41.69
55656;BME280;41530;52.382;5.270;2023-06-10T06:15:40;101855.31;;;23.90;41.56
55656;BME280;41530;52.382;5.270;2023-06-10T06:18:07;101861.22;;;23.94;41.46
55656;BME280;41530;52.382;5.270;2023-06-10T06:20:33;101862.72;;;23.96;41.68
55656;BME280;41530;52.382;5.270;2023-06-10T06:23:00;101860.69;;;23.98;41.37
55656;BME280;41530;52.382;5.270;2023-06-10T06:25:27;101869.25;;;24.02;41.67
55656;BME280;41530;52.382;5.270;2023-06-10T06:27:53;101856.66;;;24.02;41.30
55656;BME280;41530;52.382;5.270;2023-06-10T06:30:20;101860.00;;;24.04;41.67
55656;BME280;41530;52.382;5.270;2023-06-10T06:32:47;101864.69;;;24.10;41.69
55656;BME280;41530;52.382;5.270;2023-06-10T06:35:13;101863.00;;;24.17;41.80
55656;BME280;41530;52.382;5.270;2023-06-10T06:37:40;101868.91;;;24.21;41.50
55656;BME280;41530;52.382;5.270;2023-06-10T06:40:07;101860.00;;;24.21;41.50
55656;BME280;41530;52.382;5.270;2023-06-10T06:42:34;101864.22;;;24.23;41.20
55656;BME280;41530;52.382;5.270;2023-06-10T06:45:00;101865.53;;;24.27;41.50
55656;BME280;41530;52.382;5.270;2023-06-10T06:47:27;101865.38;;;24.29;41.55
55656;BME280;41530;52.382;5.270;2023-06-10T06:49:54;101858.97;;;24.30;41.60
55656;BME280;41530;52.382;5.270;2023-06-10T06:52:20;101862.84;;;24.35;41.36
55656;BME280;41530;52.382;5.270;2023-06-10T06:54:48;101855.41;;;24.37;41.29
55656;BME280;41530;52.382;5.270;2023-06-10T06:57:15;101856.09;;;24.39;41.26
55656;BME280;41530;52.382;5.270;2023-06-10T06:59:42;101852.22;;;24.42;41.08
55656;BME280;41530;52.382;5.270;2023-06-10T07:02:10;101856.59;;;24.43;41.24
55656;BME280;41530;52.382;5.270;2023-06-10T07:04:36;101853.56;;;24.46;41.36
55656;BME280;41530;52.382;5.270;2023-06-10T07:07:04;101860.63;;;24.47;41.17
55656;BME280;41530;52.382;5.270;2023-06-10T07:09:31;101865.47;;;24.51;41.38
55656;BME280;41530;52.382;5.270;2023-06-10T07:11:57;101863.63;;;24.52;41.33
55656;BME280;41530;52.382;5.270;2023-06-10T07:14:24;101858.91;;;24.54;41.30
55656;BME280;41530;52.382;5.270;2023-06-10T07:16:51;101859.56;;;24.56;41.04
55656;BME280;41530;52.382;5.270;2023-06-10T07:19:18;101863.59;;;24.60;40.96
55656;BME280;41530;52.382;5.270;2023-06-10T07:21:44;101855.69;;;24.59;41.10
55656;BME280;41530;52.382;5.270;2023-06-10T07:24:11;101859.72;;;24.63;41.33
55656;BME280;41530;52.382;5.270;2023-06-10T07:26:38;101861.03;;;24.67;41.14
55656;BME280;41530;52.382;5.270;2023-06-10T07:29:05;101857.16;;;24.69;41.22
55656;BME280;41530;52.382;5.270;2023-06-10T07:31:31;101866.56;;;24.73;41.16
55656;BME280;41530;52.382;5.270;2023-06-10T07:33:58;101860.84;;;24.76;41.41
55656;BME280;41530;52.382;5.270;2023-06-10T07:36:25;101855.09;;;24.79;41.39
55656;BME280;41530;52.382;5.270;2023-06-10T07:38:56;101859.78;;;24.85;41.71
55656;BME280;41530;52.382;5.270;2023-06-10T07:41:24;101862.13;;;24.89;41.08
55656;BME280;41530;52.382;5.270;2023-06-10T07:43:54;101848.34;;;24.83;41.16
55656;BME280;41530;52.382;5.270;2023-06-10T07:46:23;101866.00;;;24.94;41.43
55656;BME280;41530;52.382;5.270;2023-06-10T07:48:51;101866.50;;;24.98;41.54
55656;BME280;41530;52.382;5.270;2023-06-10T07:51:17;101871.16;;;25.04;41.58
55656;BME280;41530;52.382;5.270;2023-06-10T07:53:44;101865.59;;;25.05;41.27
55656;BME280;41530;52.382;5.270;2023-06-10T07:56:11;101864.22;;;25.09;41.29
55656;BME280;41530;52.382;5.270;2023-06-10T07:58:38;101862.03;;;25.13;41.11
55656;BME280;41530;52.382;5.270;2023-06-10T08:01:04;101873.28;;;25.16;41.32
55656;BME280;41530;52.382;5.270;2023-06-10T08:03:31;101868.19;;;25.21;41.52
55656;BME280;41530;52.382;5.270;2023-06-10T08:05:58;101868.50;;;25.27;41.43
55656;BME280;41530;52.382;5.270;2023-06-10T08:08:25;101875.41;;;25.29;41.21
55656;BME280;41530;52.382;5.270;2023-06-10T08:10:51;101875.03;;;25.32;40.92
55656;BME280;41530;52.382;5.270;2023-06-10T08:13:18;101869.47;;;25.34;40.97
55656;BME280;41530;52.382;5.270;2023-06-10T08:15:45;101877.03;;;25.38;41.02
55656;BME280;41530;52.382;5.270;2023-06-10T08:18:14;101871.63;;;25.38;40.93
55656;BME280;41530;52.382;5.270;2023-06-10T08:20:40;101867.91;;;25.39;40.67
55656;BME280;41530;52.382;5.270;2023-06-10T08:23:07;101877.97;;;25.45;40.81
55656;BME280;41530;52.382;5.270;2023-06-10T08:25:34;101882.16;;;25.48;40.88
55656;BME280;41530;52.382;5.270;2023-06-10T08:28:00;101879.78;;;25.53;41.23
55656;BME280;41530;52.382;5.270;2023-06-10T08:30:27;101875.91;;;25.55;40.95
55656;BME280;41530;52.382;5.270;2023-06-10T08:32:53;101874.50;;;25.60;40.81
55656;BME280;41530;52.382;5.270;2023-06-10T08:35:20;101873.66;;;25.59;40.68
55656;BME280;41530;52.382;5.270;2023-06-10T08:37:47;101870.47;;;25.64;40.61
55656;BME280;41530;52.382;5.270;2023-06-10T08:40:14;101878.63;;;25.70;40.67
55656;BME280;41530;52.382;5.270;2023-06-10T08:45:18;101878.78;;;25.77;40.47
55656;BME280;41530;52.382;5.270;2023-06-10T08:47:46;101873.03;;;25.80;40.95
55656;BME280;41530;52.382;5.270;2023-06-10T08:50:17;101871.00;;;25.82;40.56
55656;BME280;41530;52.382;5.270;2023-06-10T08:52:47;101884.75;;;25.87;40.18
55656;BME280;41530;52.382;5.270;2023-06-10T08:55:29;101877.31;;;25.89;39.83
55656;BME280;41530;52.382;5.270;2023-06-10T08:57:59;101871.94;;;25.89;39.57
55656;BME280;41530;52.382;5.270;2023-06-10T09:00:28;101876.31;;;25.90;39.80
55656;BME280;41530;52.382;5.270;2023-06-10T09:02:56;101880.13;;;25.96;39.79
55656;BME280;41530;52.382;5.270;2023-06-10T09:05:23;101880.13;;;25.96;39.54
55656;BME280;41530;52.382;5.270;2023-06-10T09:07:52;101884.97;;;26.00;39.62
55656;BME280;41530;52.382;5.270;2023-06-10T09:10:19;101876.69;;;26.02;39.96
55656;BME280;41530;52.382;5.270;2023-06-10T09:12:46;101880.72;;;26.06;39.75
55656;BME280;41530;52.382;5.270;2023-06-10T09:15:13;101882.66;;;26.12;39.94
55656;BME280;41530;52.382;5.270;2023-06-10T09:17:41;101878.94;;;26.13;39.76
55656;BME280;41530;52.382;5.270;2023-06-10T09:20:08;101882.94;;;26.17;39.87
55656;BME280;41530;52.382;5.270;2023-06-10T09:22:37;101869.47;;;26.17;39.89
55656;BME280;41530;52.382;5.270;2023-06-10T09:25:09;101880.34;;;26.23;39.74
55656;BME280;41530;52.382;5.270;2023-06-10T09:27:50;101876.44;;;26.26;39.79
55656;BME280;41530;52.382;5.270;2023-06-10T09:30:30;101873.41;;;26.29;39.03
55656;BME280;41530;52.382;5.270;2023-06-10T09:33:00;101887.38;;;26.33;39.38
55656;BME280;41530;52.382;5.270;2023-06-10T09:35:30;101871.00;;;26.34;38.84
55656;BME280;41530;52.382;5.270;2023-06-10T09:37:58;101875.00;;;26.38;39.74
55656;BME280;41530;52.382;5.270;2023-06-10T09:40:26;101874.81;;;26.40;39.34
55656;BME280;41530;52.382;5.270;2023-06-10T09:43:03;101877.16;;;26.43;38.43
55656;BME280;41530;52.382;5.270;2023-06-10T09:45:30;101875.28;;;26.43;39.30
55656;BME280;41530;52.382;5.270;2023-06-10T09:48:00;101870.38;;;26.47;39.32
55656;BME280;41530;52.382;5.270;2023-06-10T09:50:27;101877.25;;;26.49;39.37
55656;BME280;41530;52.382;5.270;2023-06-10T09:52:54;101866.47;;;26.49;39.30
55656;BME280;41530;52.382;5.270;2023-06-10T10:03:31;101868.69;;;26.60;39.17
55656;BME280;41530;52.382;5.270;2023-06-10T10:05:59;101870.63;;;26.67;38.96
55656;BME280;41530;52.382;5.270;2023-06-10T10:08:29;101873.78;;;26.70;39.19
55656;BME280;41530;52.382;5.270;2023-06-10T10:10:57;101858.13;;;26.66;38.38
55656;BME280;41530;52.382;5.270;2023-06-10T10:13:25;101870.72;;;26.73;38.42
55656;BME280;41530;52.382;5.270;2023-06-10T10:15:55;101861.59;;;26.74;37.96
55656;BME280;41530;52.382;5.270;2023-06-10T10:18:24;101868.09;;;26.80;38.43
55656;BME280;41530;52.382;5.270;2023-06-10T10:20:56;101866.03;;;26.82;38.45
55656;BME280;41530;52.382;5.270;2023-06-10T10:23:40;101860.25;;;26.85;37.96
55656;BME280;41530;52.382;5.270;2023-06-10T10:26:11;101859.25;;;26.86;37.62
55656;BME280;41530;52.382;5.270;2023-06-10T10:28:45;101861.56;;;26.89;37.70
55656;BME280;41530;52.382;5.270;2023-06-10T10:31:16;101858.66;;;26.90;38.10
55656;BME280;41530;52.382;5.270;2023-06-10T10:33:50;101858.31;;;26.93;38.03
55656;BME280;41530;52.382;5.270;2023-06-10T10:36:19;101855.78;;;26.92;37.89
55656;BME280;41530;52.382;5.270;2023-06-10T10:38:47;101842.75;;;26.95;37.45
55656;BME280;41530;52.382;5.270;2023-06-10T10:41:18;101853.56;;;26.95;38.26
55656;BME280;41530;52.382;5.270;2023-06-10T10:43:46;101851.16;;;27.01;37.96
55656;BME280;41530;52.382;5.270;2023-06-10T10:46:15;101849.72;;;27.05;37.89
55656;BME280;41530;52.382;5.270;2023-06-10T10:48:43;101848.69;;;27.06;38.32
55656;BME280;41530;52.382;5.270;2023-06-10T10:51:11;101845.78;;;27.07;38.20
55656;BME280;41530;52.382;5.270;2023-06-10T10:53:38;101842.91;;;27.09;37.05
55656;BME280;41530;52.382;5.270;2023-06-10T10:58:33;101845.88;;;27.14;37.67
55656;BME280;41530;52.382;5.270;2023-06-10T11:00:59;101835.72;;;27.16;37.73
55656;BME280;41530;52.382;5.270;2023-06-10T11:03:42;101839.06;;;27.18;36.54
55656;BME280;41530;52.382;5.270;2023-06-10T11:06:14;101832.63;;;27.19;36.25
55656;BME280;41530;52.382;5.270;2023-06-10T11:11:27;101826.19;;;27.20;35.75
55656;BME280;41530;52.382;5.270;2023-06-10T11:16:29;101824.78;;;27.24;36.10
55656;BME280;41530;52.382;5.270;2023-06-10T11:18:56;101828.13;;;27.26;37.12
55656;BME280;41530;52.382;5.270;2023-06-10T11:21:26;101823.56;;;27.26;36.49
55656;BME280;41530;52.382;5.270;2023-06-10T11:23:58;101828.38;;;27.31;36.50
55656;BME280;41530;52.382;5.270;2023-06-10T11:33:59;101822.59;;;27.34;36.33
55656;BME280;41530;52.382;5.270;2023-06-10T11:36:27;101820.53;;;27.36;35.78
55656;BME280;41530;52.382;5.270;2023-06-10T11:38:58;101822.22;;;27.37;35.24
55656;BME280;41530;52.382;5.270;2023-06-10T11:41:26;101814.09;;;27.37;35.30
55656;BME280;41530;52.382;5.270;2023-06-10T11:43:53;101807.28;;;27.41;35.89
55656;BME280;41530;52.382;5.270;2023-06-10T11:46:24;101803.56;;;27.42;36.10
55656;BME280;41530;52.382;5.270;2023-06-10T11:49:04;101804.19;;;27.44;35.56
55656;BME280;41530;52.382;5.270;2023-06-10T11:51:36;101799.41;;;27.46;35.63
55656;BME280;41530;52.382;5.270;2023-06-10T11:54:03;101804.81;;;27.46;35.65
55656;BME280;41530;52.382;5.270;2023-06-10T11:56:31;101793.63;;;27.49;35.86
55656;BME280;41530;52.382;5.270;2023-06-10T11:59:06;101801.56;;;27.51;34.59
55656;BME280;41530;52.382;5.270;2023-06-10T12:01:37;101810.31;;;27.53;35.85
55656;BME280;41530;52.382;5.270;2023-06-10T12:04:11;101806.56;;;27.54;35.52
55656;BME280;41530;52.382;5.270;2023-06-10T12:19:50;101785.84;;;27.61;35.72
55656;BME280;41530;52.382;5.270;2023-06-10T12:22:17;101784.81;;;27.62;35.36
55656;BME280;41530;52.382;5.270;2023-06-10T12:24:57;101789.66;;;27.66;34.01
55656;BME280;41530;52.382;5.270;2023-06-10T12:27:28;101779.69;;;27.67;34.64
55656;BME280;41530;52.382;5.270;2023-06-10T12:29:57;101783.03;;;27.69;34.42
55656;BME280;41530;52.382;5.270;2023-06-10T12:32:38;101775.34;;;27.73;33.35
55656;BME280;41530;52.382;5.270;2023-06-10T12:35:06;101774.94;;;27.76;34.92
55656;BME280;41530;52.382;5.270;2023-06-10T12:37:33;101772.44;;;27.74;35.21
55656;BME280;41530;52.382;5.270;2023-06-10T12:40:01;101772.25;;;27.76;35.07
55656;BME280;41530;52.382;5.270;2023-06-10T12:42:29;101767.66;;;27.76;34.43
55656;BME280;41530;52.382;5.270;2023-06-10T12:44:57;101776.22;;;27.80;34.50
55656;BME280;41530;52.382;5.270;2023-06-10T12:47:33;101772.50;;;27.81;34.12
55656;BME280;41530;52.382;5.270;2023-06-10T12:50:06;101768.97;;;27.80;34.32
55656;BME280;41530;52.382;5.270;2023-06-10T12:52:33;101766.66;;;27.84;34.66
55656;BME280;41530;52.382;5.270;2023-06-10T12:54:59;101762.94;;;27.85;35.46
55656;BME280;41530;52.382;5.270;2023-06-10T12:57:27;101766.47;;;27.85;34.30
55656;BME280;41530;52.382;5.270;2023-06-10T12:59:54;101760.03;;;27.86;34.75
55656;BME280;41530;52.382;5.270;2023-06-10T13:02:23;101767.13;;;27.87;34.48
55656;BME280;41530;52.382;5.270;2023-06-10T13:04:50;101764.03;;;27.90;34.33
55656;BME280;41530;52.382;5.270;2023-06-10T13:07:18;101769.25;;;27.92;34.58
55656;BME280;41530;52.382;5.270;2023-06-10T13:09:45;101764.66;;;27.92;34.51
55656;BME280;41530;52.382;5.270;2023-06-10T13:12:15;101762.78;;;27.93;34.84
55656;BME280;41530;52.382;5.270;2023-06-10T13:14:48;101757.56;;;27.91;35.08
55656;BME280;41530;52.382;5.270;2023-06-10T13:17:15;101766.13;;;27.95;34.97
55656;BME280;41530;52.382;5.270;2023-06-10T13:19:41;101754.50;;;27.94;34.93
55656;BME280;41530;52.382;5.270;2023-06-10T13:22:08;101757.00;;;27.96;35.73
55656;BME280;41530;52.382;5.270;2023-06-10T13:24:35;101762.41;;;27.96;35.60
55656;BME280;41530;52.382;5.270;2023-06-10T13:27:02;101760.94;;;28.00;35.15
55656;BME280;41530;52.382;5.270;2023-06-10T13:29:29;101754.72;;;27.99;34.57
55656;BME280;41530;52.382;5.270;2023-06-10T13:31:57;101758.88;;;28.02;34.41
55656;BME280;41530;52.382;5.270;2023-06-10T13:34:23;101756.19;;;28.02;34.32
55656;BME280;41530;52.382;5.270;2023-06-10T13:36:50;101753.28;;;28.03;33.97